createdAt,value
2017-08-19T00:02:16.024Z,1004.61
2017-08-19T00:04:40.003Z,1004.58
2017-08-19T00:08:40.267Z,1004.46
2017-08-19T00:12:42.805Z,1004.4
2017-08-19T00:15:06.898Z,1004.32
2017-08-19T00:17:16.836Z,1004.32
2017-08-19T00:19:47.635Z,1004.27
2017-08-19T00:22:11.786Z,1004.28
2017-08-19T00:24:35.838Z,1004.22
2017-08-19T00:27:02.139Z,1004.15
2017-08-19T00:29:26.958Z,1004.16
2017-08-19T00:31:50.971Z,1004.21
2017-08-19T00:34:15.038Z,1004.22
2017-08-19T00:36:40.055Z,1004.21
2017-08-19T00:39:04.085Z,1004.15
2017-08-19T00:41:30.137Z,1004.19
2017-08-19T00:43:54.167Z,1004.2
2017-08-19T00:46:25.166Z,1004.18
2017-08-19T00:48:49.224Z,1004.21
2017-08-19T00:51:13.209Z,1004.26
2017-08-19T00:53:45.135Z,1004.26
2017-08-19T00:56:09.183Z,1004.29
2017-08-19T00:58:33.262Z,1004.27
2017-08-19T01:00:58.262Z,1004.32
2017-08-19T01:03:22.264Z,1004.36
2017-08-19T01:05:46.318Z,1004.41
2017-08-19T01:08:10.487Z,1004.36
2017-08-19T01:10:42.680Z,1004.39
2017-08-19T01:13:06.755Z,1004.36
2017-08-19T01:15:30.772Z,1004.4
2017-08-19T01:17:54.730Z,1004.44
2017-08-19T01:20:25.696Z,1004.4
2017-08-19T01:22:49.644Z,1004.47
2017-08-19T01:25:13.643Z,1004.53
2017-08-19T01:27:39.665Z,1004.67
2017-08-19T01:30:03.815Z,1004.81
2017-08-19T01:32:35.671Z,1004.82
2017-08-19T01:34:59.671Z,1005.01
2017-08-19T01:37:23.703Z,1005.08
2017-08-19T01:39:49.780Z,1005.03
2017-08-19T01:42:14.730Z,1005.02
2017-08-19T01:44:40.716Z,1005.03
2017-08-19T01:47:04.705Z,1005.09
2017-08-19T01:49:28.674Z,1005.06
2017-08-19T01:51:45.123Z,1004.99
2017-08-19T01:54:17.173Z,1005.06
2017-08-19T01:56:41.057Z,1005.09
2017-08-19T01:59:05.005Z,1005.03
2017-08-19T02:01:31.319Z,1005.07
2017-08-19T02:04:10.194Z,1005.14
2017-08-19T02:06:33.969Z,1005.25
2017-08-19T02:09:13.031Z,1005.3
2017-08-19T02:11:36.543Z,1005.27
2017-08-19T02:14:00.428Z,1005.26
2017-08-19T02:16:24.314Z,1005.2
2017-08-19T02:18:50.235Z,1005.24
2017-08-19T02:21:05.721Z,1005.24
2017-08-19T02:23:16.105Z,1005.28
2017-08-19T02:25:41.049Z,1005.36
2017-08-19T02:28:04.975Z,1005.43
2017-08-19T02:30:28.819Z,1005.36
2017-08-19T02:32:52.744Z,1005.29
2017-08-19T02:35:24.480Z,1005.28
2017-08-19T02:37:48.393Z,1005.3
2017-08-19T02:40:12.244Z,1005.34
2017-08-19T02:42:52.934Z,1005.45
2017-08-19T02:45:08.452Z,1005.54
2017-08-19T02:47:32.502Z,1005.58
2017-08-19T02:49:57.416Z,1005.6
2017-08-19T02:52:27.959Z,1005.56
2017-08-19T02:54:51.822Z,1005.48
2017-08-19T02:57:15.688Z,1005.44
2017-08-19T02:59:54.430Z,1005.42
2017-08-19T03:02:18.352Z,1005.47
2017-08-19T03:04:42.337Z,1005.62
2017-08-19T03:07:06.105Z,1005.73
2017-08-19T03:09:31.029Z,1005.78
2017-08-19T03:11:47.553Z,1005.79
2017-08-19T03:14:11.417Z,1005.79
2017-08-19T03:16:37.321Z,1005.87
2017-08-19T03:19:01.275Z,1005.88
2017-08-19T03:21:27.122Z,1005.85
2017-08-19T03:23:53.045Z,1005.88
2017-08-19T03:26:16.941Z,1005.85
2017-08-19T03:28:42.795Z,1005.83
2017-08-19T03:31:06.611Z,1005.84
2017-08-19T03:33:45.447Z,1005.95
2017-08-19T03:36:09.545Z,1005.98
2017-08-19T03:38:39.937Z,1005.95
2017-08-19T03:41:03.795Z,1005.9
2017-08-19T03:43:27.684Z,1005.83
2017-08-19T03:46:00.458Z,1005.85
2017-08-19T03:48:15.889Z,1005.98
2017-08-19T03:50:17.746Z,1005.9
2017-08-19T03:52:28.849Z,1005.76
2017-08-19T03:54:39.242Z,1005.76
2017-08-19T03:57:05.008Z,1005.82
2017-08-19T03:59:30.859Z,1005.87
2017-08-19T04:02:01.540Z,1005.88
2017-08-19T04:04:25.469Z,1005.82
2017-08-19T04:06:49.244Z,1005.8
2017-08-19T04:09:21.039Z,1005.81
2017-08-19T04:11:44.855Z,1005.82
2017-08-19T04:14:08.633Z,1005.8
2017-08-19T04:16:34.472Z,1005.74
2017-08-19T04:18:56.564Z,1005.79
2017-08-19T04:21:20.375Z,1005.84
2017-08-19T04:23:44.209Z,1005.83
2017-08-19T04:26:17.059Z,1005.77
2017-08-19T04:28:40.838Z,1005.77
2017-08-19T04:31:05.674Z,1005.76
2017-08-19T04:33:29.507Z,1005.74
2017-08-19T04:36:00.086Z,1005.77
2017-08-19T04:38:23.911Z,1005.69
2017-08-19T04:40:47.733Z,1005.72
2017-08-19T04:43:13.623Z,1005.72
2017-08-19T04:45:38.462Z,1005.76
2017-08-19T04:48:04.374Z,1005.71
2017-08-19T04:50:29.404Z,1005.68
2017-08-19T04:52:53.373Z,1005.67
2017-08-19T04:55:19.355Z,1005.7
2017-08-19T04:57:43.467Z,1005.79
2017-08-19T04:59:53.713Z,1005.82
2017-08-19T05:02:17.587Z,1005.8
2017-08-19T05:04:41.435Z,1005.81
2017-08-19T05:07:06.264Z,1005.85
2017-08-19T05:09:30.131Z,1005.89
2017-08-19T05:11:53.917Z,1005.93
2017-08-19T05:14:05.268Z,1005.96
2017-08-19T05:16:30.156Z,1005.97
2017-08-19T05:19:01.614Z,1006.02
2017-08-19T05:21:19.187Z,1006.03
2017-08-19T05:23:43.123Z,1006.06
2017-08-19T05:26:21.645Z,1006.04
2017-08-19T05:28:45.604Z,1006.05
2017-08-19T05:31:09.622Z,1006.02
2017-08-19T05:33:33.735Z,1006.06
2017-08-19T05:35:58.168Z,1006.05
2017-08-19T05:38:22.823Z,1006.08
2017-08-19T05:40:53.612Z,1006.11
2017-08-19T05:43:17.581Z,1006.21
2017-08-19T05:45:41.586Z,1006.25
2017-08-19T05:48:05.636Z,1006.25
2017-08-19T05:50:29.609Z,1006.31
2017-08-19T05:52:53.826Z,1006.31
2017-08-19T05:55:17.732Z,1006.32
2017-08-19T05:57:41.869Z,1006.31
2017-08-19T06:00:06.032Z,1006.35
2017-08-19T06:02:30.121Z,1006.39
2017-08-19T06:04:54.242Z,1006.48
2017-08-19T06:07:18.380Z,1006.64
2017-08-19T06:09:42.700Z,1006.54
2017-08-19T06:12:07.245Z,1006.42
2017-08-19T06:14:31.915Z,1006.47
2017-08-19T06:16:56.434Z,1006.51
2017-08-19T06:19:20.899Z,1006.47
2017-08-19T06:21:45.554Z,1006.47
2017-08-19T06:24:10.202Z,1006.52
2017-08-19T06:26:20.847Z,1006.62
2017-08-19T06:28:45.233Z,1006.67
2017-08-19T06:31:10.640Z,1006.69
2017-08-19T06:33:34.928Z,1006.72
2017-08-19T06:35:59.376Z,1006.73
2017-08-19T06:38:23.582Z,1006.75
2017-08-19T06:40:48.903Z,1006.79
2017-08-19T06:43:13.208Z,1006.88
2017-08-19T06:45:37.698Z,1006.82
2017-08-19T06:48:02.262Z,1006.76
2017-08-19T06:50:26.923Z,1006.87
2017-08-19T06:52:51.691Z,1006.95
2017-08-19T06:55:16.065Z,1007.07
2017-08-19T06:57:41.642Z,1007.04
2017-08-19T07:00:06.204Z,1007.35
2017-08-19T07:02:30.802Z,1007.37
2017-08-19T07:04:55.556Z,1007.41
2017-08-19T07:07:20.720Z,1007.43
2017-08-19T07:09:46.013Z,1007.41
2017-08-19T07:13:48.110Z,1007.43
2017-08-19T07:16:14.654Z,1007.44
2017-08-19T07:18:40.685Z,1007.45
2017-08-19T07:21:06.725Z,1007.57
2017-08-19T07:23:34.094Z,1007.42
2017-08-19T07:26:00.356Z,1007.42
2017-08-19T07:28:26.396Z,1007.37
2017-08-19T07:30:52.222Z,1007.38
2017-08-19T07:33:17.911Z,1007.4
2017-08-19T07:35:43.320Z,1007.37
2017-08-19T07:38:08.796Z,1007.32
2017-08-19T07:40:33.835Z,1007.53
2017-08-19T07:42:59.074Z,1007.52
2017-08-19T07:45:24.177Z,1007.5
2017-08-19T07:47:49.263Z,1007.45
2017-08-19T07:50:14.431Z,1007.46
2017-08-19T07:52:40.400Z,1007.47
2017-08-19T07:54:42.442Z,1007.49
2017-08-19T07:57:07.345Z,1007.56
2017-08-19T07:59:09.470Z,1007.61
2017-08-19T08:01:34.404Z,1007.6
2017-08-19T08:03:59.311Z,1007.61
2017-08-19T08:06:24.075Z,1007.58
2017-08-19T08:08:48.788Z,1007.87
2017-08-19T08:11:13.423Z,1007.74
2017-08-19T08:13:38.192Z,1007.68
2017-08-19T08:16:03.008Z,1007.7
2017-08-19T08:18:27.743Z,1008.02
2017-08-19T08:20:52.735Z,1007.88
2017-08-19T08:23:17.806Z,1008.05
2017-08-19T08:25:42.970Z,1007.69
2017-08-19T08:28:08.072Z,1008
2017-08-19T08:30:26.329Z,1007.54
2017-08-19T08:32:51.872Z,1007.94
2017-08-19T08:35:17.052Z,1007.95
2017-08-19T08:37:42.283Z,1007.95
2017-08-19T08:40:07.382Z,1007.97
2017-08-19T08:42:32.721Z,1007.96
2017-08-19T08:44:58.343Z,1007.95
2017-08-19T08:47:25.655Z,1007.99
2017-08-19T08:49:51.089Z,1007.89
2017-08-19T08:52:16.421Z,1007.88
2017-08-19T08:54:41.995Z,1007.9
2017-08-19T08:57:07.565Z,1007.86
2017-08-19T08:59:33.082Z,1007.91
2017-08-19T09:01:59.485Z,1007.89
2017-08-19T09:04:24.959Z,1007.62
2017-08-19T09:06:51.365Z,1007.59
2017-08-19T09:09:16.941Z,1007.83
2017-08-19T09:11:42.389Z,1007.79
2017-08-19T09:13:59.205Z,1007.83
2017-08-19T09:16:24.680Z,1007.78
2017-08-19T09:18:50.016Z,1007.8
2017-08-19T09:21:15.405Z,1007.69
2017-08-19T09:23:40.750Z,1007.7
2017-08-19T09:26:06.511Z,1007.65
2017-08-19T09:28:31.846Z,1007.54
2017-08-19T09:30:57.243Z,1007.65
2017-08-19T09:33:22.655Z,1007.64
2017-08-19T09:35:47.953Z,1007.56
2017-08-19T09:38:13.176Z,1007.44
2017-08-19T09:40:38.498Z,1007.49
2017-08-19T09:43:03.868Z,1007.52
2017-08-19T09:45:29.146Z,1007.53
2017-08-19T09:47:54.482Z,1007.54
2017-08-19T09:51:56.130Z,1007.43
2017-08-19T09:54:21.400Z,1007.27
2017-08-19T09:56:46.634Z,1007.41
2017-08-19T09:59:11.749Z,1007.34
2017-08-19T10:01:28.455Z,1007.16
2017-08-19T10:03:53.688Z,1007.32
2017-08-19T10:06:19.830Z,1007.16
2017-08-19T10:08:45.004Z,1007.31
2017-08-19T10:11:10.113Z,1007.3
2017-08-19T10:13:35.165Z,1007.28
2017-08-19T10:16:00.228Z,1007.26
2017-08-19T10:18:25.433Z,1007.22
2017-08-19T10:20:50.801Z,1007.23
2017-08-19T10:23:15.862Z,1007.17
2017-08-19T10:25:41.225Z,1007.28
2017-08-19T10:28:06.640Z,1007.16
2017-08-19T10:30:31.705Z,1007.19
2017-08-19T10:32:57.021Z,1007.19
2017-08-19T10:35:22.057Z,1007.17
2017-08-19T10:37:46.999Z,1007.19
2017-08-19T10:40:11.939Z,1007.18
2017-08-19T10:42:36.829Z,1007.16
2017-08-19T10:45:01.602Z,1007.14
2017-08-19T10:47:26.494Z,1007.1
2017-08-19T10:51:28.026Z,1007.07
2017-08-19T10:53:52.828Z,1007.08
2017-08-19T10:56:17.717Z,1007.16
2017-08-19T10:58:42.450Z,1007.12
2017-08-19T11:02:43.724Z,1007.04
2017-08-19T11:05:08.540Z,1007.01
2017-08-19T11:07:33.279Z,1007.07
2017-08-19T11:09:58.548Z,1006.94
2017-08-19T11:12:23.601Z,1007.05
2017-08-19T11:14:43.138Z,1007.12
2017-08-19T11:17:08.052Z,1007.06
2017-08-19T11:19:32.879Z,1007.06
2017-08-19T11:21:57.640Z,1007.01
2017-08-19T11:24:23.410Z,1007.07
2017-08-19T11:26:48.247Z,1007.05
2017-08-19T11:29:13.051Z,1006.97
2017-08-19T11:31:37.966Z,1006.99
2017-08-19T11:34:02.746Z,1007.02
2017-08-19T11:36:27.842Z,1007
2017-08-19T11:38:52.363Z,1006.95
2017-08-19T11:41:17.104Z,1006.95
2017-08-19T11:43:41.815Z,1006.92
2017-08-19T11:46:06.576Z,1006.94
2017-08-19T11:48:31.358Z,1006.97
2017-08-19T11:50:56.416Z,1006.92
2017-08-19T11:53:21.391Z,1006.96
2017-08-19T11:55:23.458Z,1006.96
2017-08-19T11:57:48.242Z,1006.9
2017-08-19T12:00:13.009Z,1007.02
2017-08-19T12:02:37.732Z,1006.95
2017-08-19T12:05:02.466Z,1006.94
2017-08-19T12:07:27.227Z,1007.01
2017-08-19T12:09:51.932Z,1007.05
2017-08-19T12:12:16.709Z,1007.03
2017-08-19T12:14:41.485Z,1006.95
2017-08-19T12:17:06.169Z,1006.97
2017-08-19T12:19:30.912Z,1007.02
2017-08-19T12:21:55.546Z,1006.98
2017-08-19T12:24:11.806Z,1006.94
2017-08-19T12:26:36.505Z,1006.99
2017-08-19T12:29:01.211Z,1006.96
2017-08-19T12:31:17.411Z,1006.99
2017-08-19T12:35:18.446Z,1007.01
2017-08-19T12:37:43.072Z,1006.95
2017-08-19T12:40:07.699Z,1006.88
2017-08-19T12:42:32.415Z,1006.94
2017-08-19T12:44:42.534Z,1006.92
2017-08-19T12:46:58.702Z,1006.88
2017-08-19T12:49:23.361Z,1006.93
2017-08-19T12:51:48.086Z,1006.89
2017-08-19T12:54:12.766Z,1006.96
2017-08-19T12:56:37.445Z,1006.92
2017-08-19T12:59:02.155Z,1006.89
2017-08-19T13:01:26.843Z,1006.82
2017-08-19T13:03:51.542Z,1006.87
2017-08-19T13:06:16.263Z,1006.9
2017-08-19T13:08:32.466Z,1006.93
2017-08-19T13:10:57.252Z,1006.96
2017-08-19T13:13:21.913Z,1006.82
2017-08-19T13:15:46.625Z,1006.85
2017-08-19T13:18:11.318Z,1006.86
2017-08-19T13:20:36.193Z,1006.86
2017-08-19T13:23:00.733Z,1006.89
2017-08-19T13:25:25.410Z,1006.84
2017-08-19T13:27:50.138Z,1006.84
2017-08-19T13:30:14.810Z,1006.91
2017-08-19T13:32:39.515Z,1006.85
2017-08-19T13:34:41.575Z,1006.83
2017-08-19T13:37:06.280Z,1006.83
2017-08-19T13:39:30.911Z,1006.9
2017-08-19T13:41:55.527Z,1006.93
2017-08-19T13:44:20.144Z,1006.92
2017-08-19T13:46:44.709Z,1006.88
2017-08-19T13:49:09.435Z,1006.91
2017-08-19T13:51:34.122Z,1006.82
2017-08-19T13:53:58.836Z,1006.87
2017-08-19T13:56:23.501Z,1006.91
2017-08-19T13:58:48.226Z,1006.9
2017-08-19T14:00:58.385Z,1006.88
2017-08-19T14:03:22.951Z,1006.8
2017-08-19T14:05:47.524Z,1006.92
2017-08-19T14:08:12.087Z,1006.8
2017-08-19T14:10:36.732Z,1006.84
2017-08-19T14:13:01.344Z,1006.82
2017-08-19T14:14:55.679Z,1006.74
2017-08-19T14:17:20.268Z,1006.85
2017-08-19T14:19:36.334Z,1006.86
2017-08-19T14:22:00.999Z,1006.89
2017-08-19T14:24:25.503Z,1006.88
2017-08-19T14:26:50.120Z,1006.9
2017-08-19T14:29:14.673Z,1006.88
2017-08-19T14:31:39.251Z,1006.84
2017-08-19T14:34:03.871Z,1006.92
2017-08-19T14:36:28.484Z,1006.96
2017-08-19T14:38:53.066Z,1006.89
2017-08-19T14:41:03.652Z,1006.84
2017-08-19T14:43:28.182Z,1006.87
2017-08-19T14:45:44.232Z,1006.8
2017-08-19T14:48:08.777Z,1006.81
2017-08-19T14:50:33.323Z,1006.79
2017-08-19T14:52:57.781Z,1006.8
2017-08-19T14:55:22.375Z,1006.85
2017-08-19T14:57:46.896Z,1006.82
2017-08-19T14:59:48.917Z,1006.75
2017-08-19T15:02:13.642Z,1006.87
2017-08-19T15:04:38.085Z,1006.9
2017-08-19T15:07:02.587Z,1006.88
2017-08-19T15:09:27.189Z,1006.87
2017-08-19T15:11:51.654Z,1006.89
2017-08-19T15:14:16.188Z,1006.89
2017-08-19T15:16:40.743Z,1006.96
2017-08-19T15:19:05.452Z,1006.93
2017-08-19T15:21:30.044Z,1006.92
2017-08-19T15:23:54.586Z,1006.88
2017-08-19T15:26:19.145Z,1006.96
2017-08-19T15:28:43.708Z,1006.83
2017-08-19T15:31:08.201Z,1006.94
2017-08-19T15:33:32.799Z,1006.93
2017-08-19T15:35:57.297Z,1006.94
2017-08-19T15:38:21.781Z,1006.98
2017-08-19T15:40:46.329Z,1006.98
2017-08-19T15:43:10.841Z,1007.02
2017-08-19T15:45:35.531Z,1007.01
2017-08-19T15:47:59.907Z,1007.02
2017-08-19T15:50:24.342Z,1007.04
2017-08-19T15:52:40.353Z,1007.09
2017-08-19T15:55:05.023Z,1007.06
2017-08-19T15:57:29.524Z,1007.11
2017-08-19T15:59:53.979Z,1007.06
2017-08-19T16:02:18.535Z,1007.03
2017-08-19T16:04:43.043Z,1007.04
2017-08-19T16:07:07.446Z,1007.06
2017-08-19T16:09:31.964Z,1007.07
2017-08-19T16:11:56.548Z,1007.08
2017-08-19T16:14:21.134Z,1007.07
2017-08-19T16:16:52.254Z,1007.09
2017-08-19T16:19:16.929Z,1007.09
2017-08-19T16:21:41.489Z,1007.12
2017-08-19T16:24:06.100Z,1007.13
2017-08-19T16:26:30.535Z,1007.1
2017-08-19T16:28:55.142Z,1007.09
2017-08-19T16:31:19.376Z,1007.14
2017-08-19T16:33:43.801Z,1007.13
2017-08-19T16:36:08.318Z,1007.14
2017-08-19T16:38:25.271Z,1007.15
2017-08-19T16:40:49.606Z,1007.15
2017-08-19T16:43:14.055Z,1007.16
2017-08-19T16:45:38.509Z,1007.2
2017-08-19T16:48:02.941Z,1007.2
2017-08-19T16:50:27.343Z,1007.19
2017-08-19T16:52:51.766Z,1007.2
2017-08-19T16:55:16.209Z,1007.2
2017-08-19T16:57:40.585Z,1007.16
2017-08-19T17:00:04.966Z,1007.15
2017-08-19T17:02:29.456Z,1007.17
2017-08-19T17:04:53.838Z,1007.17
2017-08-19T17:07:18.255Z,1007.24
2017-08-19T17:09:42.844Z,1007.22
2017-08-19T17:12:07.074Z,1007.24
2017-08-19T17:14:31.434Z,1007.21
2017-08-19T17:16:55.784Z,1007.25
2017-08-19T17:19:20.149Z,1007.23
2017-08-19T17:21:44.486Z,1007.26
2017-08-19T17:24:09.928Z,1007.25
2017-08-19T17:26:34.220Z,1007.21
2017-08-19T17:28:58.582Z,1007.2
2017-08-19T17:31:22.992Z,1007.32
2017-08-19T17:33:47.301Z,1007.33
2017-08-19T17:36:11.637Z,1007.32
2017-08-19T17:38:35.959Z,1007.31
2017-08-19T17:41:00.327Z,1007.32
2017-08-19T17:43:24.656Z,1007.38
2017-08-19T17:45:48.986Z,1007.39
2017-08-19T17:48:13.293Z,1007.39
2017-08-19T17:50:37.653Z,1007.41
2017-08-19T17:53:01.844Z,1007.44
2017-08-19T17:55:26.176Z,1007.48
2017-08-19T17:57:50.418Z,1007.5
2017-08-19T18:00:14.735Z,1007.55
2017-08-19T18:02:39.081Z,1007.55
2017-08-19T18:05:05.335Z,1007.6
2017-08-19T18:07:29.887Z,1007.62
2017-08-19T18:09:54.281Z,1007.63
2017-08-19T18:12:18.615Z,1007.64
2017-08-19T18:14:43.152Z,1007.68
2017-08-19T18:17:07.447Z,1007.7
2017-08-19T18:19:31.791Z,1007.74
2017-08-19T18:21:56.051Z,1007.71
2017-08-19T18:24:27.493Z,1007.72
2017-08-19T18:26:51.764Z,1007.73
2017-08-19T18:29:16.021Z,1007.74
2017-08-19T18:31:40.293Z,1007.74
2017-08-19T18:34:04.552Z,1007.79
2017-08-19T18:36:28.943Z,1007.77
2017-08-19T18:38:53.206Z,1007.88
2017-08-19T18:41:17.414Z,1007.91
2017-08-19T18:43:41.727Z,1007.88
2017-08-19T18:46:06.377Z,1007.89
2017-08-19T18:48:30.810Z,1007.95
2017-08-19T18:50:57.146Z,1007.99
2017-08-19T18:53:21.466Z,1008
2017-08-19T18:55:45.835Z,1008
2017-08-19T18:58:10.102Z,1008.03
2017-08-19T19:00:34.392Z,1008.05
2017-08-19T19:02:58.668Z,1008.06
2017-08-19T19:05:23.028Z,1008.11
2017-08-19T19:07:47.205Z,1008.16
2017-08-19T19:10:11.561Z,1008.18
2017-08-19T19:12:35.905Z,1008.16
2017-08-19T19:15:00.275Z,1008.16
2017-08-19T19:17:25.699Z,1008.1
2017-08-19T19:19:49.996Z,1008.12
2017-08-19T19:22:14.193Z,1008.18
2017-08-19T19:24:38.616Z,1008.15
2017-08-19T19:27:03.063Z,1008.19
2017-08-19T19:29:28.473Z,1008.2
2017-08-19T19:31:52.809Z,1008.21
2017-08-19T19:34:18.261Z,1008.26
2017-08-19T19:36:42.398Z,1008.31
2017-08-19T19:39:06.565Z,1008.31
2017-08-19T19:41:30.710Z,1008.32
2017-08-19T19:43:54.937Z,1008.34
2017-08-19T19:46:19.172Z,1008.38
2017-08-19T19:48:43.378Z,1008.47
2017-08-19T19:51:07.535Z,1008.47
2017-08-19T19:53:32.062Z,1008.47
2017-08-19T19:55:56.883Z,1008.5
2017-08-19T19:57:58.707Z,1008.46
2017-08-19T20:00:22.914Z,1008.47
2017-08-19T20:02:47.147Z,1008.47
2017-08-19T20:05:11.356Z,1008.51
2017-08-19T20:07:35.443Z,1008.54
2017-08-19T20:09:59.547Z,1008.53
2017-08-19T20:12:00.941Z,1008.56
2017-08-19T20:14:11.377Z,1008.6
2017-08-19T20:16:21.861Z,1008.58
2017-08-19T20:18:46.088Z,1008.62
2017-08-19T20:21:10.150Z,1008.64
2017-08-19T20:23:35.232Z,1008.67
2017-08-19T20:25:59.337Z,1008.69
2017-08-19T20:28:23.397Z,1008.7
2017-08-19T20:30:47.506Z,1008.76
2017-08-19T20:33:11.537Z,1008.8
2017-08-19T20:35:35.626Z,1008.86
2017-08-19T20:37:37.044Z,1008.86
2017-08-19T20:40:01.228Z,1008.89
2017-08-19T20:42:25.332Z,1008.87
2017-08-19T20:44:49.420Z,1008.9
2017-08-19T20:47:13.714Z,1008.91
2017-08-19T20:49:37.764Z,1008.88
2017-08-19T20:52:01.793Z,1008.89
2017-08-19T20:54:25.948Z,1008.86
2017-08-19T20:56:50.009Z,1008.88
2017-08-19T20:59:14.049Z,1008.84
2017-08-19T21:01:38.266Z,1008.82
2017-08-19T21:04:02.344Z,1008.9
2017-08-19T21:06:26.511Z,1008.9
2017-08-19T21:08:50.589Z,1008.92
2017-08-19T21:11:14.695Z,1008.93
2017-08-19T21:13:38.888Z,1008.96
2017-08-19T21:16:03.123Z,1008.99
2017-08-19T21:18:27.142Z,1008.96
2017-08-19T21:20:51.406Z,1009.03
2017-08-19T21:23:15.295Z,1009.01
2017-08-19T21:25:39.589Z,1008.99
2017-08-19T21:28:03.667Z,1009.01
2017-08-19T21:30:27.778Z,1009.01
2017-08-19T21:32:51.959Z,1009.01
2017-08-19T21:36:53.342Z,1009.08
2017-08-19T21:39:17.497Z,1009.08
2017-08-19T21:41:41.790Z,1009.08
2017-08-19T21:44:05.806Z,1009.09
2017-08-19T21:46:29.930Z,1009.07
2017-08-19T21:48:54.023Z,1009.07
2017-08-19T21:51:18.255Z,1009.08
2017-08-19T21:53:42.350Z,1009.02
2017-08-19T21:56:06.549Z,1009.02
2017-08-19T21:58:30.856Z,1009.09
2017-08-19T22:00:54.984Z,1009.06
2017-08-19T22:03:19.144Z,1009.1
2017-08-19T22:05:43.177Z,1009.08
2017-08-19T22:08:07.274Z,1009.04
2017-08-19T22:10:31.530Z,1009.03
2017-08-19T22:12:55.627Z,1009.01
2017-08-19T22:15:19.800Z,1009.05
2017-08-19T22:17:44.037Z,1009
2017-08-19T22:20:08.082Z,1009
2017-08-19T22:22:33.493Z,1008.98
2017-08-19T22:26:34.079Z,1009.04
2017-08-19T22:28:58.034Z,1009.05
2017-08-19T22:31:22.004Z,1009.02
2017-08-19T22:33:46.184Z,1008.98
2017-08-19T22:36:10.319Z,1009.01
2017-08-19T22:38:35.464Z,1009.02
2017-08-19T22:40:59.506Z,1009.03
2017-08-19T22:43:23.524Z,1009.07
2017-08-19T22:45:47.548Z,1009.11
2017-08-19T22:48:11.519Z,1009.18
2017-08-19T22:50:35.599Z,1009.19
2017-08-19T22:52:59.767Z,1009.18
2017-08-19T22:55:23.869Z,1009.12
2017-08-19T22:57:48.139Z,1009.13
2017-08-19T23:00:12.121Z,1009.11
2017-08-19T23:02:36.203Z,1009.11
2017-08-19T23:05:00.282Z,1009.12
2017-08-19T23:07:24.357Z,1009.12
2017-08-19T23:09:48.512Z,1009.1
2017-08-19T23:12:12.662Z,1009.14
2017-08-19T23:14:36.852Z,1009.14
2017-08-19T23:17:00.923Z,1009.15
2017-08-19T23:19:25.062Z,1009.2
2017-08-19T23:21:49.553Z,1009.18
2017-08-19T23:24:13.985Z,1009.14
2017-08-19T23:26:37.969Z,1009.15
2017-08-19T23:29:02.157Z,1009.09
2017-08-19T23:31:26.151Z,1009.08
2017-08-19T23:33:50.309Z,1009.12
2017-08-19T23:36:14.343Z,1009.09
2017-08-19T23:38:38.467Z,1009.14
2017-08-19T23:40:50.557Z,1009.16
2017-08-19T23:43:14.742Z,1009.17
2017-08-19T23:45:38.816Z,1009.16
2017-08-19T23:48:02.720Z,1009.18
2017-08-19T23:50:26.738Z,1009.19
2017-08-19T23:52:50.757Z,1009.19
2017-08-19T23:55:14.724Z,1009.19
2017-08-19T23:57:38.710Z,1009.18
